Terminal Aerodrome Forecast
Issued by NWS Twin Cities, MN

Home | Current Version | Previous Version | Text Only | Print | Product List | Glossary On
Versions: 1 2 3 4 5 6 7 8 9 10 11 12
147
FTUS43 KMPX 181720
TAFSTC
TAF
KSTC 181720Z 1818/1918 24008KT P6SM SKC
     FM182100 23007KT P6SM BKN250
     FM190200 20004KT P6SM BKN200
     FM191500 18007KT P6SM BKN150=

USA.gov is the U.S. government's official web portal to all federal, state and local government web resources and services.